Back to Top

Language: 

My Weather Underground Personal Weather Station Historical Data with Graphs...

Delerius Weather Station Historical Data
Daily Summary for November 24, 2017 Units:  Metric    English   Both
« Previous Day
Next Day »
Daily Weekly Monthly Yearly Custom
  High: Low: Average:
Temperature: 7.9 °C 1.1 °C 4.2 °C
Dew Point: 3.7 °C -0.3 °C 1.8 °C
Humidity: 94 % 69 % 85 %
Wind Speed: 25.7 km/h 0 km/h 7.2 km/h
Wind Gust: 37 km/h - -
Wind:- - West
Pressure: 1011.1 hPa 1003.9 hPa -
Precipitation: 0.25 mm    
Historical Graphs
 
 
Tabular Data for November 24, 2017
Time Temperature Dew Point Pressure Wind Wind Speed Wind Gust Humidity Rainfall Rate (Hourly) solar Conditions
00:03 3.7 °C 1.7 °C 1003.9 hPa SE 1.6 km/h 6.4 km/h 87 % 0 mm 0 W/m2
00:08 3.7 °C 1.7 °C 1003.9 hPa ENE 1.6 km/h 6.4 km/h 87 % 0 mm 0 W/m2
00:13 3.7 °C 1.7 °C 1003.9 hPa East 3.2 km/h 8 km/h 87 % 0 mm 0 W/m2
00:18 3.7 °C 1.7 °C 1003.9 hPa East 4.8 km/h 6.4 km/h 87 % 0 mm 0 W/m2
00:23 3.6 °C 1.6 °C 1003.9 hPa ESE 1.6 km/h 3.2 km/h 87 % 0 mm 0 W/m2
00:25 3.6 °C 1.6 °C 1003.9 hPa ESE 1.6 km/h 3.2 km/h 87 % 0 mm 0 W/m2
00:30 3.6 °C 1.6 °C 1003.9 hPa SSW 4.8 km/h 9.7 km/h 87 % 0 mm 0 W/m2
00:35 3.7 °C 1.9 °C 1003.9 hPa SW 9.7 km/h 17.7 km/h 88 % 0 mm 0 W/m2
00:40 3.9 °C 2.1 °C 1003.9 hPa SSW 6.4 km/h 11.3 km/h 88 % 0 mm 0 W/m2
00:45 4.1 °C 2.3 °C 1003.9 hPa SSW 8 km/h 12.9 km/h 88 % 0 mm 0 W/m2
00:50 4.2 °C 2.4 °C 1003.9 hPa SSW 8 km/h 12.9 km/h 88 % 0 mm 0 W/m2
00:55 4.3 °C 2.3 °C 1003.9 hPa SW 9.7 km/h 16.1 km/h 87 % 0 mm 0 W/m2
01:00 4.3 °C 2.3 °C 1003.9 hPa SW 9.7 km/h 12.9 km/h 87 % 0 mm 0 W/m2
01:05 4.3 °C 2.3 °C 1004.3 hPa SW 8 km/h 12.9 km/h 87 % 0 mm 0 W/m2
01:10 4.3 °C 2.2 °C 1004.3 hPa SW 8 km/h 11.3 km/h 86 % 0 mm 0 W/m2
01:15 4.4 °C 2.3 °C 1004.3 hPa SW 9.7 km/h 14.5 km/h 86 % 0 mm 0 W/m2
01:21 4.4 °C 2.3 °C 1004.3 hPa SW 8 km/h 11.3 km/h 86 % 0 mm 0 W/m2
01:26 4.4 °C 2.3 °C 1004.3 hPa SW 8 km/h 12.9 km/h 86 % 0 mm 0 W/m2
01:31 4.5 °C 2.3 °C 1004.6 hPa SW 9.7 km/h 12.9 km/h 86 % 0 mm 0 W/m2
01:36 4.5 °C 2.2 °C 1004.3 hPa WSW 6.4 km/h 11.3 km/h 85 % 0 mm 0 W/m2
01:46 4.3 °C 2 °C 1004.3 hPa West 9.7 km/h 17.7 km/h 85 % 0 mm 0 W/m2
01:51 4.3 °C 2.2 °C 1004.6 hPa WNW 8 km/h 11.3 km/h 86 % 0 mm 0 W/m2
01:56 4.2 °C 2.1 °C 1004.6 hPa West 9.7 km/h 14.5 km/h 86 % 0 mm 0 W/m2
02:01 4.1 °C 1.9 °C 1004.6 hPa WNW 9.7 km/h 16.1 km/h 86 % 0 mm 0 W/m2
02:06 4.1 °C 1.9 °C 1004.6 hPa WNW 11.3 km/h 16.1 km/h 86 % 0 mm 0 W/m2
02:11 4 °C 1.9 °C 1004.6 hPa West 9.7 km/h 14.5 km/h 86 % 0 mm 0 W/m2
02:16 4 °C 2.1 °C 1004.6 hPa West 11.3 km/h 16.1 km/h 87 % 0 mm 0 W/m2
02:26 4.1 °C 1.9 °C 1005 hPa West 11.3 km/h 17.7 km/h 86 % 0 mm 0 W/m2
02:31 4.1 °C 1.9 °C 1005 hPa West 12.9 km/h 20.9 km/h 86 % 0 mm 0 W/m2
02:36 4.1 °C 2.1 °C 1005 hPa WNW 9.7 km/h 16.1 km/h 87 % 0 mm 0 W/m2
02:41 4.1 °C 1.9 °C 1005 hPa West 11.3 km/h 20.9 km/h 86 % 0 mm 0 W/m2
02:46 4.1 °C 1.9 °C 1005 hPa West 11.3 km/h 17.7 km/h 86 % 0 mm 0 W/m2
02:51 4.1 °C 1.9 °C 1005 hPa WNW 6.4 km/h 12.9 km/h 86 % 0 mm 0 W/m2
03:01 3.9 °C 1.8 °C 1005 hPa NW 4.8 km/h 9.7 km/h 86 % 0 mm 0 W/m2
03:12 3.7 °C 1.7 °C 1005 hPa WNW 8 km/h 11.3 km/h 87 % 0 mm 0 W/m2
03:17 3.7 °C 1.7 °C 1005.3 hPa WNW 6.4 km/h 11.3 km/h 87 % 0 mm 0 W/m2
03:19 3.7 °C 1.7 °C 1005 hPa WNW 6.4 km/h 11.3 km/h 87 % 0 mm 0 W/m2
03:27 3.6 °C 1.8 °C 1005.3 hPa WNW 6.4 km/h 11.3 km/h 88 % 0 mm 0 W/m2
03:31 3.6 °C 1.8 °C 1005.3 hPa WNW 6.4 km/h 11.3 km/h 88 % 0 mm 0 W/m2
03:36 3.5 °C 1.7 °C 1005.3 hPa WNW 8 km/h 12.9 km/h 88 % 0 mm 0 W/m2
03:41 3.5 °C 1.7 °C 1005.3 hPa West 11.3 km/h 22.5 km/h 88 % 0 mm 0 W/m2
03:46 3.5 °C 1.7 °C 1005.3 hPa WNW 8 km/h 12.9 km/h 88 % 0 mm 0 W/m2
03:52 3.5 °C 1.7 °C 1005.3 hPa West 9.7 km/h 16.1 km/h 88 % 0 mm 0 W/m2
03:57 3.4 °C 1.6 °C 1005.3 hPa West 11.3 km/h 17.7 km/h 88 % 0 mm 0 W/m2
04:12 3.6 °C 1.8 °C 1005.6 hPa West 9.7 km/h 14.5 km/h 88 % 0 mm 0 W/m2
04:17 3.6 °C 1.8 °C 1005.6 hPa West 9.7 km/h 17.7 km/h 88 % 0 mm 0 W/m2
04:22 3.7 °C 1.7 °C 1005.6 hPa West 9.7 km/h 14.5 km/h 87 % 0 mm 0 W/m2
04:32 3.6 °C 1.6 °C 1006 hPa West 8 km/h 16.1 km/h 87 % 0 mm 0 W/m2
04:37 3.6 °C 1.6 °C 1006 hPa West 8 km/h 12.9 km/h 87 % 0 mm 0 W/m2
04:42 3.5 °C 1.6 °C 1006 hPa West 4.8 km/h 8 km/h 87 % 0 mm 0 W/m2
04:47 3.4 °C 1.4 °C 1006 hPa West 1.6 km/h 6.4 km/h 87 % 0 mm 0 W/m2
04:52 3.2 °C 1.2 °C 1006 hPa WNW 4.8 km/h 12.9 km/h 87 % 0 mm 0 W/m2
04:58 3.1 °C 1.3 °C 1006 hPa WNW 6.4 km/h 12.9 km/h 88 % 0 mm 0 W/m2
05:03 3 °C 1.4 °C 1006.3 hPa West 3.2 km/h 11.3 km/h 89 % 0 mm 0 W/m2
05:13 2.8 °C 1.2 °C 1006.3 hPa West 8 km/h 12.9 km/h 89 % 0 mm 0 W/m2
05:18 2.8 °C 1.3 °C 1006 hPa West 3.2 km/h 11.3 km/h 90 % 0 mm 0 W/m2
05:23 2.8 °C 1.3 °C 1006.3 hPa West 3.2 km/h 11.3 km/h 90 % 0 mm 0 W/m2
05:28 2.8 °C 1.3 °C 1006.3 hPa West 11.3 km/h 17.7 km/h 90 % 0 mm 0 W/m2
05:33 2.9 °C 1.4 °C 1006.3 hPa West 8 km/h 14.5 km/h 90 % 0 mm 0 W/m2
05:38 3 °C 1.5 °C 1006.3 hPa West 9.7 km/h 14.5 km/h 90 % 0 mm 0 W/m2
05:48 3.1 °C 1.4 °C 1006.3 hPa West 9.7 km/h 16.1 km/h 89 % 0 mm 0 W/m2
05:53 3.2 °C 1.6 °C 1006.3 hPa West 9.7 km/h 17.7 km/h 89 % 0 mm 0 W/m2
05:58 3.2 °C 1.6 °C 1006.7 hPa West 8 km/h 16.1 km/h 89 % 0 mm 0 W/m2
06:03 3.1 °C 1.3 °C 1006.7 hPa WNW 9.7 km/h 16.1 km/h 88 % 0 mm 0 W/m2
06:08 3.1 °C 1.4 °C 1006.7 hPa WNW 9.7 km/h 12.9 km/h 89 % 0 mm 0 W/m2
06:13 3 °C 1.4 °C 1006.7 hPa West 9.7 km/h 16.1 km/h 89 % 0 mm 0 W/m2
06:18 2.9 °C 1.3 °C 1006.7 hPa West 6.4 km/h 12.9 km/h 89 % 0 mm 0 W/m2
06:38 2.6 °C 0.9 °C 1007 hPa WNW 3.2 km/h 8 km/h 89 % 0 mm 0 W/m2
06:43 2.4 °C 0.8 °C 1007 hPa WNW 3.2 km/h 8 km/h 89 % 0 mm 0 W/m2
06:48 2.3 °C 0.7 °C 1007.3 hPa WNW 3.2 km/h 8 km/h 89 % 0 mm 0 W/m2
06:53 2.2 °C 0.6 °C 1007.3 hPa WNW 4.8 km/h 8 km/h 89 % 0 mm 0 W/m2
06:58 2.2 °C 0.7 °C 1007.3 hPa WNW 4.8 km/h 8 km/h 90 % 0 mm 0 W/m2
07:03 2.1 °C 0.6 °C 1007.3 hPa WNW 3.2 km/h 6.4 km/h 90 % 0 mm 0 W/m2
07:08 2 °C 0.6 °C 1007.7 hPa NW 6.4 km/h 14.5 km/h 90 % 0 mm 0 W/m2
07:18 2.1 °C 0.8 °C 1007.7 hPa WNW 6.4 km/h 14.5 km/h 91 % 0 mm 0 W/m2
07:23 2.3 °C 1 °C 1007.7 hPa WNW 3.2 km/h 8 km/h 91 % 0 mm 0 W/m2
07:28 2.3 °C 0.8 °C 1008 hPa WNW 3.2 km/h 6.4 km/h 90 % 0 mm 0 W/m2
07:33 2.1 °C 0.6 °C 1008 hPa WNW 1.6 km/h 6.4 km/h 90 % 0 mm 0 W/m2
07:48 1.8 °C 0.3 °C 1008 hPa WNW 4.8 km/h 8 km/h 90 % 0 mm 7 W/m2
08:04 1.6 °C 0.1 °C 1008 hPa Calm   1.6 km/h 90 % 0 mm 11 W/m2
08:14 1.3 °C -0.2 °C 1008.4 hPa Calm     90 % 0 mm 16 W/m2
08:19 1.2 °C -0.3 °C 1008.4 hPa Calm   3.2 km/h 90 % 0 mm 16 W/m2
08:24 1.1 °C -0.2 °C 1008 hPa Calm   1.6 km/h 91 % 0 mm 18 W/m2
08:34 1.1 °C -0.1 °C 1008 hPa Calm     92 % 0 mm 21 W/m2
08:44 1.2 °C 0.1 °C 1008.4 hPa Calm   1.6 km/h 92 % 0 mm 23 W/m2
08:49 1.3 °C 0.3 °C 1008.4 hPa WNW 1.6 km/h 8 km/h 93 % 0 mm 26 W/m2
08:54 1.6 °C 0.6 °C 1008.4 hPa WNW 1.6 km/h 3.2 km/h 93 % 0 mm 42 W/m2
08:59 1.8 °C 0.8 °C 1008.4 hPa WNW 1.6 km/h 6.4 km/h 93 % 0 mm 30 W/m2
09:04 2 °C 1 °C 1008.4 hPa WNW 4.8 km/h 8 km/h 93 % 0 mm 132 W/m2
09:09 2.3 °C 1.3 °C 1008.4 hPa West 6.4 km/h 9.7 km/h 93 % 0 mm 146 W/m2
09:14 2.5 °C 1.5 °C 1008.4 hPa West 1.6 km/h 4.8 km/h 93 % 0 mm 155 W/m2
09:19 2.7 °C 1.7 °C 1008.7 hPa West 1.6 km/h 4.8 km/h 93 % 0 mm 163 W/m2
09:20 2.8 °C 1.8 °C 1008.7 hPa West 1.6 km/h 9.7 km/h 93 % 0 mm 163 W/m2
09:25 3.1 °C 2.1 °C 1008.7 hPa West 4.8 km/h 9.7 km/h 93 % 0 mm 176 W/m2
09:30 3.5 °C 2.3 °C 1009 hPa WNW 3.2 km/h 8 km/h 92 % 0 mm 176 W/m2
09:35 3.9 °C 2.6 °C 1009 hPa West 3.2 km/h 6.4 km/h 91 % 0 mm 181 W/m2
09:40 4.2 °C 2.7 °C 1009 hPa West 6.4 km/h 11.3 km/h 90 % 0 mm 188 W/m2
09:45 4.6 °C 2.8 °C 1009 hPa West 6.4 km/h 11.3 km/h 88 % 0 mm 197 W/m2
09:50 4.8 °C 2.8 °C 1009 hPa West 8 km/h 12.9 km/h 87 % 0 mm 204 W/m2
09:55 5.1 °C 2.9 °C 1009.4 hPa West 12.9 km/h 19.3 km/h 86 % 0 mm 211 W/m2
10:00 5.2 °C 2.9 °C 1009.4 hPa West 11.3 km/h 16.1 km/h 85 % 0 mm 218 W/m2
10:05 5.3 °C 2.8 °C 1009.4 hPa West 11.3 km/h 20.9 km/h 84 % 0 mm 223 W/m2
10:10 5.4 °C 2.9 °C 1009.4 hPa West 14.5 km/h 24.1 km/h 84 % 0 mm 230 W/m2
10:15 5.5 °C 2.8 °C 1009.4 hPa West 11.3 km/h 17.7 km/h 83 % 0 mm 232 W/m2
10:20 5.6 °C 3.1 °C 1009.4 hPa West 9.7 km/h 14.5 km/h 84 % 0 mm 239 W/m2
10:25 5.7 °C 3.2 °C 1009.4 hPa West 6.4 km/h 9.7 km/h 84 % 0 mm 244 W/m2
10:30 5.9 °C 3.2 °C 1009.4 hPa West 9.7 km/h 16.1 km/h 83 % 0 mm 250 W/m2
10:35 6.1 °C 3.3 °C 1009.7 hPa West 9.7 km/h 17.7 km/h 82 % 0 mm 253 W/m2
10:40 6.2 °C 3.2 °C 1009.7 hPa West 12.9 km/h 19.3 km/h 81 % 0 mm 258 W/m2
10:45 6.3 °C 3.1 °C 1009.7 hPa West 14.5 km/h 25.7 km/h 80 % 0 mm 260 W/m2
10:50 6.4 °C 3 °C 1009.4 hPa West 14.5 km/h 24.1 km/h 79 % 0 mm 265 W/m2
10:56 6.5 °C 3.1 °C 1009.4 hPa West 12.9 km/h 17.7 km/h 79 % 0 mm 269 W/m2
11:01 6.6 °C 3.2 °C 1009.7 hPa West 17.7 km/h 22.5 km/h 79 % 0 mm 271 W/m2
11:06 6.6 °C 3.2 °C 1009.7 hPa West 16.1 km/h 24.1 km/h 79 % 0 mm 274 W/m2
11:11 6.6 °C 3.2 °C 1009.7 hPa West 16.1 km/h 24.1 km/h 79 % 0 mm 278 W/m2
11:16 6.7 °C 3.3 °C 1009.7 hPa West 17.7 km/h 24.1 km/h 79 % 0 mm 281 W/m2
11:21 6.7 °C 3.3 °C 1009.7 hPa West 14.5 km/h 19.3 km/h 79 % 0 mm 283 W/m2
11:26 6.9 °C 3.5 °C 1009.7 hPa West 12.9 km/h 19.3 km/h 79 % 0 mm 283 W/m2
11:31 6.9 °C 3.3 °C 1009.7 hPa West 12.9 km/h 19.3 km/h 78 % 0 mm 288 W/m2
11:36 7.1 °C 3.3 °C 1009.7 hPa WSW 14.5 km/h 22.5 km/h 77 % 0 mm 218 W/m2
11:41 7.1 °C 3.3 °C 1009.7 hPa West 12.9 km/h 20.9 km/h 77 % 0 mm 311 W/m2
11:46 7.2 °C 3.4 °C 1009.7 hPa WSW 16.1 km/h 24.1 km/h 77 % 0 mm 306 W/m2
11:51 7.2 °C 3.4 °C 1009.7 hPa WSW 14.5 km/h 20.9 km/h 77 % 0 mm 290 W/m2
11:56 7.3 °C 3.6 °C 1009.7 hPa WSW 11.3 km/h 19.3 km/h 77 % 0 mm 290 W/m2
12:01 7.4 °C 3.4 °C 1009.7 hPa WSW 11.3 km/h 19.3 km/h 76 % 0 mm 288 W/m2
12:06 7.6 °C 3.4 °C 1009.7 hPa West 12.9 km/h 19.3 km/h 75 % 0 mm 287 W/m2
12:16 7.8 °C 3.7 °C 1009.7 hPa West 14.5 km/h 22.5 km/h 75 % 0 mm 292 W/m2
12:21 7.8 °C 3.4 °C 1009.7 hPa WSW 12.9 km/h 22.5 km/h 74 % 0 mm 283 W/m2
12:26 7.9 °C 3.6 °C 1009.7 hPa WSW 12.9 km/h 20.9 km/h 74 % 0 mm 278 W/m2
12:31 7.9 °C 3.6 °C 1009.7 hPa WSW 12.9 km/h 24.1 km/h 74 % 0 mm 276 W/m2
12:36 7.9 °C 3.6 °C 1009.7 hPa West 11.3 km/h 20.9 km/h 74 % 0 mm 279 W/m2
12:41 7.9 °C 3.6 °C 1009.7 hPa WSW 14.5 km/h 22.5 km/h 74 % 0 mm 272 W/m2
12:46 7.9 °C 3.6 °C 1009.7 hPa West 17.7 km/h 30.6 km/h 74 % 0 mm 267 W/m2
12:51 7.8 °C 3.4 °C 1009.7 hPa WSW 14.5 km/h 22.5 km/h 74 % 0 mm 262 W/m2
12:56 7.8 °C 3.4 °C 1009.7 hPa WSW 17.7 km/h 25.7 km/h 74 % 0 mm 260 W/m2
13:01 7.7 °C 3.3 °C 1009.7 hPa West 14.5 km/h 24.1 km/h 74 % 0 mm 255 W/m2
13:06 7.8 °C 3.4 °C 1009.7 hPa WSW 14.5 km/h 20.9 km/h 74 % 0 mm 250 W/m2
13:11 7.8 °C 3.4 °C 1009.7 hPa West 12.9 km/h 20.9 km/h 74 % 0 mm 248 W/m2
13:16 7.8 °C 3.4 °C 1009.7 hPa WSW 19.3 km/h 29 km/h 74 % 0 mm 244 W/m2
13:21 7.8 °C 3.4 °C 1009.7 hPa West 16.1 km/h 24.1 km/h 74 % 0 mm 237 W/m2
13:22 7.8 °C 3.4 °C 1009.7 hPa West 12.9 km/h 25.7 km/h 74 % 0 mm 237 W/m2
13:27 7.8 °C 3.4 °C 1009.7 hPa West 14.5 km/h 24.1 km/h 74 % 0 mm 230 W/m2
13:32 7.8 °C 3.3 °C 1009.7 hPa West 16.1 km/h 25.7 km/h 73 % 0 mm 227 W/m2
13:37 7.8 °C 3.3 °C 1009.7 hPa West 12.9 km/h 19.3 km/h 73 % 0 mm 221 W/m2
13:42 7.9 °C 3.3 °C 1009.7 hPa West 16.1 km/h 25.7 km/h 73 % 0 mm 213 W/m2
13:47 7.9 °C 3.2 °C 1009.4 hPa West 20.9 km/h 33.8 km/h 72 % 0 mm 206 W/m2
13:52 7.9 °C 3.2 °C 1009.7 hPa West 22.5 km/h 37 km/h 72 % 0 mm 199 W/m2
13:55 7.8 °C 3.1 °C 1009.4 hPa West 22.5 km/h 37 km/h 72 % 0 mm 195 W/m2
14:00 7.8 °C 3.1 °C 1009.4 hPa West 19.3 km/h 32.2 km/h 72 % 0 mm 190 W/m2
14:05 7.8 °C 3.1 °C 1009.4 hPa West 24.1 km/h 37 km/h 72 % 0 mm 181 W/m2
14:10 7.8 °C 2.7 °C 1009.7 hPa West 25.7 km/h 37 km/h 70 % 0 mm 169 W/m2
14:15 7.8 °C 2.9 °C 1009.7 hPa West 20.9 km/h 33.8 km/h 71 % 0 mm 120 W/m2
14:20 7.8 °C 2.9 °C 1009.7 hPa West 16.1 km/h 22.5 km/h 71 % 0 mm 162 W/m2
14:25 7.8 °C 2.7 °C 1009.7 hPa West 20.9 km/h 29 km/h 70 % 0 mm 158 W/m2
14:30 7.9 °C 2.6 °C 1009.7 hPa West 16.1 km/h 20.9 km/h 69 % 0 mm 149 W/m2
14:35 7.9 °C 2.6 °C 1009.7 hPa West 16.1 km/h 22.5 km/h 69 % 0 mm 137 W/m2
14:40 7.8 °C 2.4 °C 1010 hPa West 12.9 km/h 19.3 km/h 69 % 0 mm 120 W/m2
14:45 7.7 °C 2.6 °C 1010 hPa West 11.3 km/h 16.1 km/h 70 % 0 mm 111 W/m2
14:50 7.6 °C 2.5 °C 1009.7 hPa West 14.5 km/h 22.5 km/h 70 % 0 mm 97 W/m2
14:55 7.4 °C 2.3 °C 1009.7 hPa West 16.1 km/h 22.5 km/h 70 % 0 mm 67 W/m2
15:00 7.3 °C 2.4 °C 1009.7 hPa West 12.9 km/h 22.5 km/h 71 % 0 mm 32 W/m2
15:05 7.2 °C 2.3 °C 1009.7 hPa West 14.5 km/h 19.3 km/h 71 % 0 mm 28 W/m2
15:10 7.1 °C 2.2 °C 1009.7 hPa West 12.9 km/h 20.9 km/h 71 % 0 mm 26 W/m2
15:15 7 °C 2.1 °C 1009.7 hPa West 14.5 km/h 22.5 km/h 71 % 0 mm 23 W/m2
15:20 6.9 °C 2.2 °C 1009.7 hPa West 8 km/h 11.3 km/h 72 % 0 mm 21 W/m2
15:25 6.8 °C 2.1 °C 1009.7 hPa West 8 km/h 17.7 km/h 72 % 0 mm 21 W/m2
15:30 6.8 °C 2.1 °C 1009.7 hPa West 8 km/h 12.9 km/h 72 % 0 mm 18 W/m2
15:35 6.6 °C 1.9 °C 1009.7 hPa West 9.7 km/h 16.1 km/h 72 % 0 mm 14 W/m2
15:40 6.5 °C 1.8 °C 1009.7 hPa West 8 km/h 12.9 km/h 72 % 0 mm 12 W/m2
15:45 6.4 °C 1.7 °C 1009.7 hPa WSW 8 km/h 12.9 km/h 72 % 0 mm 11 W/m2
15:50 6.2 °C 1.7 °C 1009.7 hPa West 11.3 km/h 16.1 km/h 73 % 0 mm 9 W/m2
15:55 6.1 °C 1.6 °C 1010 hPa West 9.7 km/h 17.7 km/h 73 % 0 mm 7 W/m2
16:00 5.9 °C 1.6 °C 1010 hPa WSW 8 km/h 12.9 km/h 74 % 0 mm 5 W/m2
16:05 5.8 °C 1.7 °C 1010 hPa SW 8 km/h 12.9 km/h 75 % 0 mm 0 W/m2
16:10 5.8 °C 1.7 °C 1009.7 hPa SW 3.2 km/h 9.7 km/h 75 % 0 mm 0 W/m2
16:15 5.7 °C 1.6 °C 1010 hPa SW 3.2 km/h 8 km/h 75 % 0 mm 0 W/m2
16:20 5.6 °C 1.5 °C 1010 hPa SW 3.2 km/h 8 km/h 75 % 0 mm 0 W/m2
16:25 5.5 °C 1.6 °C 1010 hPa Calm   3.2 km/h 76 % 0 mm 0 W/m2
16:30 5.4 °C 1.5 °C 1010 hPa SW 1.6 km/h 4.8 km/h 76 % 0 mm 0 W/m2
16:35 5.3 °C 1.4 °C 1010 hPa SW 4.8 km/h 8 km/h 76 % 0 mm 0 W/m2
16:40 5.1 °C 1.4 °C 1010 hPa SW 1.6 km/h 9.7 km/h 77 % 0 mm 0 W/m2
16:45 5 °C 1.3 °C 1010 hPa SSW 1.6 km/h 6.4 km/h 77 % 0 mm 0 W/m2
16:50 4.9 °C 1.4 °C 1010 hPa WSW 3.2 km/h 8 km/h 78 % 0 mm 0 W/m2
16:55 4.8 °C 1.3 °C 1010.4 hPa SW 1.6 km/h 8 km/h 78 % 0 mm 0 W/m2
17:00 4.7 °C 1.2 °C 1010 hPa SW 3.2 km/h 6.4 km/h 78 % 0 mm 0 W/m2
17:05 4.6 °C 1.3 °C 1010.4 hPa WSW 6.4 km/h 9.7 km/h 79 % 0 mm 0 W/m2
17:10 4.5 °C 1.2 °C 1010.4 hPa WSW 4.8 km/h 11.3 km/h 79 % 0 mm 0 W/m2
17:15 4.4 °C 1.1 °C 1010.4 hPa WSW 6.4 km/h 11.3 km/h 79 % 0 mm 0 W/m2
17:20 4.4 °C 1.2 °C 1010.7 hPa West 4.8 km/h 9.7 km/h 80 % 0 mm 0 W/m2
17:25 4.4 °C 1.4 °C 1010.7 hPa WNW 16.1 km/h 30.6 km/h 81 % 0 mm 0 W/m2
17:27 4.4 °C 1.4 °C 1010.7 hPa WNW 17.7 km/h 30.6 km/h 81 % 0 mm 0 W/m2
17:32 4.5 °C 1.7 °C 1010.7 hPa WNW 12.9 km/h 22.5 km/h 82 % 0 mm 0 W/m2
17:37 4.4 °C 1.8 °C 1010.7 hPa NW 9.7 km/h 17.7 km/h 83 % 0 mm 0 W/m2
17:42 4.3 °C 1.8 °C 1010.7 hPa NW 8 km/h 12.9 km/h 84 % 0 mm 0 W/m2
17:47 4.2 °C 1.7 °C 1010.7 hPa WNW 8 km/h 12.9 km/h 84 % 0 mm 0 W/m2
17:51 4.1 °C 1.8 °C 1010.7 hPa WNW 3.2 km/h 8 km/h 85 % 0 mm 0 W/m2
17:57 3.9 °C 1.8 °C 1010.7 hPa NW 8 km/h 14.5 km/h 86 % 0 mm 0 W/m2
18:02 3.7 °C 1.6 °C 1010.7 hPa NW 6.4 km/h 14.5 km/h 86 % 0 mm 0 W/m2
18:07 3.5 °C 1.4 °C 1010.7 hPa NW 8 km/h 16.1 km/h 86 % 0 mm 0 W/m2
18:12 3.4 °C 1.4 °C 1010.7 hPa Calm   4.8 km/h 87 % 0 mm 0 W/m2
18:17 3.3 °C 1.5 °C 1010.7 hPa WNW 3.2 km/h 8 km/h 88 % 0 mm 0 W/m2
18:22 3.3 °C 1.5 °C 1010.7 hPa WNW 3.2 km/h 6.4 km/h 88 % 0 mm 0 W/m2
18:27 3.3 °C 1.5 °C 1010.7 hPa Calm   3.2 km/h 88 % 0 mm 0 W/m2
18:32 3.3 °C 1.7 °C 1010.7 hPa Calm     89 % 0 mm 0 W/m2
18:37 3.3 °C 1.7 °C 1010.7 hPa Calm     89 % 0 mm 0 W/m2
18:42 3.3 °C 1.7 °C 1010.7 hPa Calm     89 % 0 mm 0 W/m2
18:47 3.3 °C 1.7 °C 1010.7 hPa Calm     89 % 0 mm 0 W/m2
18:52 3.2 °C 1.6 °C 1010.4 hPa Calm     89 % 0 mm 0 W/m2
18:57 3.1 °C 1.4 °C 1010.7 hPa WNW 3.2 km/h 6.4 km/h 89 % 0 mm 0 W/m2
19:02 3 °C 1.4 °C 1010.7 hPa WNW 1.6 km/h 4.8 km/h 89 % 0 mm 0 W/m2
19:07 2.9 °C 1.4 °C 1010.4 hPa Calm     90 % 0 mm 0 W/m2
19:12 2.9 °C 1.4 °C 1010.7 hPa Calm     90 % 0 mm 0 W/m2
19:17 2.9 °C 1.4 °C 1010.7 hPa Calm     90 % 0 mm 0 W/m2
19:22 2.9 °C 1.4 °C 1010.7 hPa Calm     90 % 0 mm 0 W/m2
19:27 2.8 °C 1.3 °C 1011.1 hPa Calm   4.8 km/h 90 % 0 mm 0 W/m2
19:32 2.8 °C 1.5 °C 1011.1 hPa Calm   1.6 km/h 91 % 0 mm 0 W/m2
19:37 2.9 °C 1.6 °C 1011.1 hPa Calm   3.2 km/h 91 % 0 mm 0 W/m2
19:42 3 °C 1.7 °C 1011.1 hPa West 8 km/h 12.9 km/h 91 % 0.25 mm 0 W/m2
19:47 3.1 °C 1.8 °C 1011.1 hPa WNW 3.2 km/h 9.7 km/h 91 % 0.25 mm 0 W/m2
19:52 3.1 °C 1.8 °C 1010.7 hPa WNW 4.8 km/h 9.7 km/h 91 % 0.25 mm 0 W/m2
19:53 3.1 °C 1.8 °C 1010.7 hPa West 8 km/h 11.3 km/h 91 % 0.25 mm 0 W/m2
19:58 3.1 °C 1.8 °C 1011.1 hPa West 4.8 km/h 6.4 km/h 91 % 0.25 mm 0 W/m2
20:03 3.1 °C 1.8 °C 1011.1 hPa West 3.2 km/h 8 km/h 91 % 0.25 mm 0 W/m2
20:08 3.1 °C 1.8 °C 1011.1 hPa Calm     91 % 0.25 mm 0 W/m2
20:13 3 °C 1.7 °C 1011.1 hPa Calm     91 % 0.25 mm 0 W/m2
20:18 3 °C 1.8 °C 1011.1 hPa West 3.2 km/h 6.4 km/h 92 % 0.25 mm 0 W/m2
20:23 3 °C 1.8 °C 1011.1 hPa WSW 4.8 km/h 8 km/h 92 % 0.25 mm 0 W/m2
20:28 3.1 °C 1.9 °C 1011.1 hPa WSW 4.8 km/h 8 km/h 92 % 0.25 mm 0 W/m2
20:33 3.1 °C 1.9 °C 1010.7 hPa SW 1.6 km/h 6.4 km/h 92 % 0.25 mm 0 W/m2
20:39 3.1 °C 1.9 °C 1010.7 hPa Calm   1.6 km/h 92 % 0 mm 0 W/m2
20:44 3 °C 1.8 °C 1010.7 hPa Calm     92 % 0 mm 0 W/m2
20:49 3 °C 1.8 °C 1010.7 hPa SW 1.6 km/h 3.2 km/h 92 % 0 mm 0 W/m2
20:54 3 °C 1.8 °C 1010.7 hPa Calm   3.2 km/h 92 % 0 mm 0 W/m2
20:59 2.9 °C 1.7 °C 1010.7 hPa Calm     92 % 0 mm 0 W/m2
21:04 2.8 °C 1.6 °C 1010.7 hPa Calm     92 % 0 mm 0 W/m2
21:09 2.7 °C 1.6 °C 1010.7 hPa Calm     92 % 0 mm 0 W/m2
21:14 2.6 °C 1.3 °C 1010.7 hPa Calm     91 % 0 mm 0 W/m2
21:19 2.4 °C 1.2 °C 1010.7 hPa Calm     92 % 0 mm 0 W/m2
21:24 2.3 °C 1 °C 1010.4 hPa SW 1.6 km/h 3.2 km/h 91 % 0 mm 0 W/m2
21:29 2.2 °C 1.1 °C 1010.4 hPa Calm     92 % 0 mm 0 W/m2
21:34 2.1 °C 0.9 °C 1010.4 hPa Calm     92 % 0 mm 0 W/m2
21:39 2 °C 0.8 °C 1010.4 hPa Calm     92 % 0 mm 0 W/m2
21:44 1.8 °C 0.6 °C 1010.4 hPa Calm     92 % 0 mm 0 W/m2
21:49 1.8 °C 0.6 °C 1010.4 hPa SW 1.6 km/h 4.8 km/h 92 % 0 mm 0 W/m2
21:54 1.7 °C 0.6 °C 1010.4 hPa Calm   1.6 km/h 92 % 0 mm 0 W/m2
21:59 1.7 °C 0.7 °C 1010.7 hPa Calm     93 % 0 mm 0 W/m2
22:04 1.6 °C 0.6 °C 1010.7 hPa Calm     93 % 0 mm 0 W/m2
22:09 1.6 °C 0.6 °C 1010.7 hPa Calm     93 % 0 mm 0 W/m2
22:14 1.4 °C 0.2 °C 1010.7 hPa Calm   1.6 km/h 92 % 0 mm 0 W/m2
22:19 1.4 °C 0.4 °C 1010.7 hPa SW 1.6 km/h 4.8 km/h 93 % 0 mm 0 W/m2
22:24 1.3 °C 0.3 °C 1010.7 hPa West 4.8 km/h 8 km/h 93 % 0 mm 0 W/m2
22:29 1.3 °C 0.3 °C 1010.7 hPa WNW 3.2 km/h 8 km/h 93 % 0 mm 0 W/m2
22:34 1.4 °C 0.4 °C 1010.7 hPa WNW 4.8 km/h 8 km/h 93 % 0 mm 0 W/m2
22:39 1.4 °C 0.6 °C 1010.7 hPa WNW 3.2 km/h 6.4 km/h 94 % 0 mm 0 W/m2
22:44 1.5 °C 0.7 °C 1010.7 hPa WNW 4.8 km/h 8 km/h 94 % 0 mm 0 W/m2
22:49 1.5 °C 0.7 °C 1010.7 hPa West 4.8 km/h 9.7 km/h 94 % 0 mm 0 W/m2
22:54 1.6 °C 0.7 °C 1010.7 hPa West 3.2 km/h 8 km/h 94 % 0 mm 0 W/m2
22:59 1.7 °C 0.8 °C 1010.7 hPa WNW 4.8 km/h 8 km/h 94 % 0 mm 0 W/m2
23:04 1.7 °C 0.8 °C 1010.7 hPa NW 4.8 km/h 8 km/h 94 % 0 mm 0 W/m2
23:09 1.7 °C 0.8 °C 1010.7 hPa NW 4.8 km/h 8 km/h 94 % 0 mm 0 W/m2
23:14 1.7 °C 0.8 °C 1010.7 hPa NW 3.2 km/h 8 km/h 94 % 0 mm 0 W/m2
23:19 1.7 °C 0.8 °C 1010.7 hPa WNW 6.4 km/h 9.7 km/h 94 % 0 mm 0 W/m2
23:20 1.7 °C 0.8 °C 1010.7 hPa WNW 6.4 km/h 9.7 km/h 94 % 0 mm 0 W/m2
23:25 1.7 °C 0.8 °C 1010.7 hPa West 4.8 km/h 8 km/h 94 % 0 mm 0 W/m2
23:30 1.7 °C 0.8 °C 1010.7 hPa West 3.2 km/h 6.4 km/h 94 % 0 mm 0 W/m2
23:35 1.7 °C 0.8 °C 1010.7 hPa West 3.2 km/h 6.4 km/h 94 % 0 mm 0 W/m2
23:40 1.6 °C 0.7 °C 1010.7 hPa West 1.6 km/h 6.4 km/h 94 % 0 mm 0 W/m2
23:45 1.7 °C 0.8 °C 1010.7 hPa WSW 3.2 km/h 6.4 km/h 94 % 0 mm 0 W/m2
23:50 1.7 °C 0.8 °C 1010.7 hPa NW 3.2 km/h 6.4 km/h 94 % 0 mm 0 W/m2
Delerius-Weather
Compliments of Weather Underground - 2.25 mb

Data updates at regular intervals.